Time;durP1;ratioP1;P1;durP2;ratioP2;P2;SDS_P1;SDS_P2;PMS_P1;PMS_P2;Temp;Humidity;BMP_temperature;BMP_pressure;BME280_temperature;BME280_humidity;BME280_pressure;Samples;Min_cycle;Max_cycle;Signal;HPM_P1;HPM_P2
2023/07/01 00:00:47;;;;;;;10.43;10.13;;;;;;;-141.02;100.00;91230.38;5133335;27;20192;-65
2023/07/01 00:03:14;;;;;;;10.13;9.82;;;;;;;-141.02;100.00;90981.13;5132825;27;20197;-61
2023/07/01 00:05:41;;;;;;;10.15;9.85;;;;;;;-141.02;100.00;90981.13;5132969;27;20196;-59
2023/07/01 00:08:08;;;;;;;9.75;9.45;;;;;;;-141.02;100.00;91479.63;5133405;27;20231;-59
2023/07/01 00:10:36;;;;;;;9.60;9.30;;;;;;;-141.02;100.00;91728.88;5133083;27;20192;-69
2023/07/01 00:13:03;;;;;;;9.10;8.90;;;;;;;-141.02;100.00;92227.47;5133243;27;20693;-69
2023/07/01 00:15:30;;;;;;;8.93;8.73;;;;;;;-141.02;100.00;92227.47;5133158;27;20201;-60
2023/07/01 00:17:57;;;;;;;9.30;9.00;;;;;;;-141.02;100.00;92476.78;5133257;28;20231;-58
2023/07/01 00:20:26;;;;;;;9.32;9.02;;;;;;;-141.02;100.00;92476.78;5132854;28;20228;-58
2023/07/01 00:22:53;;;;;;;9.13;8.93;;;;;;;-141.02;100.00;92476.78;5132989;27;20207;-67
2023/07/01 00:25:20;;;;;;;9.13;8.93;;;;;;;-141.02;100.00;92476.78;5133154;28;20200;-58
2023/07/01 00:27:49;;;;;;;9.60;9.30;;;;;;;-141.02;100.00;92227.47;5132931;28;20742;-58
2023/07/01 00:31:12;;;;;;;9.32;9.02;;;;;;;-141.02;100.00;91978.16;5132773;28;20228;-60
2023/07/01 00:34:11;;;;;;;8.80;8.60;;;;;;;-141.02;100.00;92227.47;5133048;27;20224;-60
2023/07/01 00:36:37;;;;;;;8.30;8.10;;;;;;;-141.02;100.00;92975.47;5132762;28;20231;-59
2023/07/01 00:42:26;;;;;;;8.00;7.80;;;;;;;-141.02;100.00;93474.22;5132780;28;20608;-63
2023/07/01 00:45:33;;;;;;;8.10;7.90;;;;;;;-141.02;100.00;93723.63;5133005;27;20245;-59
2023/07/01 00:48:29;;;;;;;8.20;8.00;;;;;;;-141.02;100.00;93474.22;5132945;27;20228;-68
2023/07/01 00:51:23;;;;;;;8.57;8.38;;;;;;;-141.02;100.00;93224.84;5132566;28;20196;-58
2023/07/01 00:53:50;;;;;;;9.52;9.23;;;;;;;-141.02;100.00;92726.13;5132517;28;20694;-58
2023/07/01 00:56:17;;;;;;;10.02;9.73;;;;;;;-141.02;100.00;91978.16;5132620;27;20731;-58
2023/07/01 00:58:44;;;;;;;9.77;9.48;;;;;;;-141.02;100.00;91978.16;5132774;28;20193;-59
2023/07/01 01:01:16;;;;;;;10.00;9.70;;;;;;;-141.02;100.00;91978.16;5132812;27;20197;-64
2023/07/01 01:03:53;;;;;;;10.07;9.77;;;;;;;-141.02;100.00;91728.88;5132684;28;20184;-60
2023/07/01 01:06:33;;;;;;;9.93;9.63;;;;;;;-141.02;100.00;91978.16;5132483;28;20647;-64
2023/07/01 01:09:10;;;;;;;9.43;9.13;;;;;;;-141.02;100.00;91978.16;5132698;28;20211;-59
2023/07/01 01:11:40;;;;;;;8.77;8.57;;;;;;;-141.02;100.00;92476.78;5132461;28;20229;-59
2023/07/01 01:14:55;;;;;;;8.48;8.27;;;;;;;-141.02;100.00;92975.47;5132613;28;20228;-61
2023/07/01 01:17:24;;;;;;;9.30;9.00;;;;;;;-141.02;100.00;93224.84;5136502;27;20600;-58
2023/07/01 01:19:56;;;;;;;8.48;8.27;;;;;;;-141.02;100.00;93224.84;5136428;27;20630;-62
2023/07/01 01:22:31;;;;;;;8.75;8.55;;;;;;;-141.02;100.00;92975.47;5136083;27;20212;-59
2023/07/01 01:25:06;;;;;;;9.10;8.90;;;;;;;-141.02;100.00;92476.78;5136405;27;20188;-59
2023/07/01 01:27:38;;;;;;;9.50;9.20;;;;;;;-141.02;100.00;92227.47;5136064;27;20639;-60
2023/07/01 01:30:07;;;;;;;9.38;9.07;;;;;;;-141.02;100.00;91978.16;5135915;27;20189;-61
2023/07/01 01:32:35;;;;;;;9.70;9.40;;;;;;;-141.02;100.00;91728.88;5136180;27;20192;-60
2023/07/01 01:35:02;;;;;;;9.60;9.30;;;;;;;-141.02;100.00;91728.88;5135770;27;20231;-61
2023/07/01 01:37:34;;;;;;;8.80;8.60;;;;;;;-141.02;100.00;92726.13;5136079;27;20203;-62
2023/07/01 01:40:11;;;;;;;8.60;8.40;;;;;;;-141.02;100.00;93224.84;5136092;27;20653;-60
2023/07/01 01:42:44;;;;;;;7.82;7.63;;;;;;;-141.02;100.00;94222.50;5135935;27;20231;-60
2023/07/01 01:45:13;;;;;;;7.70;7.50;;;;;;;-141.02;100.00;94721.44;5135983;27;20216;-66
2023/07/01 01:47:40;;;;;;;7.40;7.20;;;;;;;-141.02;100.00;95220.47;5135583;27;20662;-60
2023/07/01 01:50:10;;;;;;;7.60;7.40;;;;;;;-141.02;100.00;95220.47;5135866;27;20224;-62
2023/07/01 01:52:39;;;;;;;7.50;7.30;;;;;;;-141.02;100.00;95470.00;5135538;27;20235;-59
2023/07/01 01:58:29;;;;;;;7.95;7.75;;;;;;;-141.02;100.00;94970.94;5135670;27;20267;-61
2023/07/01 02:00:56;;;;;;;7.90;7.70;;;;;;;-141.02;100.00;94721.44;5135643;27;20228;-61
2023/07/01 02:03:23;;;;;;;7.95;7.75;;;;;;;-141.02;100.00;94721.44;5135316;27;20197;-66
2023/07/01 02:05:50;;;;;;;7.90;7.70;;;;;;;-141.02;100.00;94970.94;5135199;27;20196;-67
2023/07/01 02:08:17;;;;;;;7.90;7.70;;;;;;;-141.02;100.00;94721.44;5135495;27;20228;-60
2023/07/01 02:10:44;;;;;;;8.00;7.80;;;;;;;-141.02;100.00;94970.94;5135372;27;20197;-64
2023/07/01 02:13:11;;;;;;;7.97;7.78;;;;;;;-141.02;100.00;95220.47;5135300;27;20266;-59
2023/07/01 02:15:39;;;;;;;7.85;7.65;;;;;;;-141.02;100.00;94970.94;5135069;27;20242;-65
2023/07/01 02:18:06;;;;;;;8.60;8.40;;;;;;;-141.02;100.00;94970.94;5135099;27;20218;-59
2023/07/01 02:20:33;;;;;;;8.30;8.10;;;;;;;-141.02;100.00;94970.94;5135175;27;20189;-58
2023/07/01 02:23:00;;;;;;;8.43;8.23;;;;;;;-141.02;100.00;95220.47;5135139;27;20271;-61
2023/07/01 02:25:27;;;;;;;7.85;7.65;;;;;;;-141.02;100.00;95470.00;5135101;27;20188;-58
2023/07/01 02:27:54;;;;;;;7.80;7.60;;;;;;;-141.02;100.00;95969.13;5133749;27;20188;-65
2023/07/01 02:30:21;;;;;;;7.35;7.15;;;;;;;-141.02;100.00;96218.69;5134961;27;20582;-59
2023/07/01 02:32:50;;;;;;;7.35;7.15;;;;;;;-141.02;100.00;96967.56;5135284;27;20296;-59
2023/07/01 02:35:17;;;;;;;7.30;7.10;;;;;;;-141.02;100.00;97217.22;5134888;27;20281;-66
2023/07/01 02:37:44;;;;;;;7.10;6.90;;;;;;;-141.02;100.00;97716.59;5134663;27;20218;-62
2023/07/01 02:40:25;;;;;;;6.90;6.70;;;;;;;-141.02;100.00;98216.03;5134831;27;20199;-59
2023/07/01 02:42:53;;;;;;;6.80;6.60;;;;;;;-141.02;100.00;98965.34;5134361;27;20236;-62
2023/07/01 02:45:20;;;;;;;6.70;6.50;;;;;;;-141.02;100.00;99464.97;5134427;27;20192;-59
2023/07/01 02:47:47;;;;;;;6.18;6.07;;;;;;;-141.02;100.00;100214.53;5134988;27;20583;-59
2023/07/01 02:50:15;;;;;;;6.22;6.13;;;;;;;-141.02;100.00;101214.22;5134720;27;20192;-59
2023/07/01 02:52:42;;;;;;;6.10;6.00;;;;;;;-141.02;100.00;102214.16;5134664;27;20249;-62
2023/07/01 02:55:17;;;;;;;5.95;5.85;;;;;;;-141.02;100.00;103214.44;5134570;27;20224;-60
2023/07/01 02:57:44;;;;;;;5.60;5.50;;;;;;;-141.02;100.00;104214.97;5134488;27;20319;-58
2023/07/01 03:00:14;;;;;;;5.10;5.00;;;;;;;-141.02;100.00;104965.56;5134285;27;20193;-60
2023/07/01 03:02:41;;;;;;;5.00;4.90;;;;;;;-141.02;100.00;105716.31;5134228;27;20670;-71
2023/07/01 03:05:09;;;;;;;5.05;4.95;;;;;;;-141.02;100.00;106467.22;5134452;27;20196;-59
2023/07/01 03:08:15;;;;;;;5.43;5.32;;;;;;;-141.02;100.00;106717.56;5134333;27;20197;-70
2023/07/01 03:10:42;;;;;;;5.20;5.10;;;;;;;-141.02;100.00;106967.91;5134316;27;20200;-66
2023/07/01 03:16:52;;;;;;;5.00;4.90;;;;;;;-141.02;100.00;107468.69;5134109;27;20332;-60
2023/07/01 03:19:19;;;;;;;5.10;5.00;;;;;;;-141.02;100.00;107468.69;5133948;27;20192;-63
2023/07/01 03:21:46;;;;;;;5.05;4.95;;;;;;;-141.02;100.00;107719.09;5134198;27;20228;-62
2023/07/01 03:24:47;;;;;;;5.40;5.30;;;;;;;-141.02;100.00;107719.09;5133981;27;20199;-59
2023/07/01 03:27:37;;;;;;;5.65;5.55;;;;;;;-141.02;100.00;107719.09;5133615;27;20192;-59
2023/07/01 03:30:05;;;;;;;6.00;5.90;;;;;;;-141.02;100.00;107719.09;5134224;27;20210;-59
2023/07/01 03:32:33;;;;;;;6.50;6.30;;;;;;;-141.02;100.00;107468.69;5133734;27;20196;-65
2023/07/01 03:35:00;;;;;;;6.70;6.50;;;;;;;-141.02;100.00;107468.69;5133517;27;20315;-60
2023/07/01 03:37:27;;;;;;;7.07;6.88;;;;;;;-141.02;100.00;107468.69;5133723;27;20627;-66
2023/07/01 03:39:56;;;;;;;8.88;8.68;;;;;;;-141.02;100.00;106967.91;5133500;27;20653;-66
2023/07/01 03:42:23;;;;;;;10.55;10.25;;;;;;;-141.02;100.00;105466.03;5133423;27;20196;-59
2023/07/01 03:44:50;;;;;;;12.48;12.07;;;;;;;-141.02;100.00;102964.34;5133787;27;20185;-74
2023/07/01 03:47:17;;;;;;;13.57;13.18;;;;;;;-141.02;100.00;101214.22;5133326;27;20196;-59
2023/07/01 03:49:44;;;;;;;14.70;14.20;;;;;;;-141.02;100.00;99714.81;5133576;27;20188;-59
2023/07/01 03:52:11;;;;;;;15.30;14.70;;;;;;;-141.02;100.00;98465.78;5133598;27;20224;-58
2023/07/01 03:54:38;;;;;;;15.23;14.63;;;;;;;-141.02;100.00;98465.78;5133164;27;20220;-59
2023/07/01 03:57:06;;;;;;;15.40;14.80;;;;;;;-141.02;100.00;97716.59;5133534;27;20253;-59
2023/07/01 03:59:33;;;;;;;15.10;14.40;;;;;;;-141.02;100.00;96967.56;5133144;27;20641;-58
2023/07/01 04:02:01;;;;;;;15.38;14.68;;;;;;;-141.02;100.00;96218.69;5133457;27;20232;-70
2023/07/01 04:04:28;;;;;;;15.40;14.70;;;;;;;-141.02;100.00;95719.53;5133111;27;20196;-59
2023/07/01 04:06:55;;;;;;;15.95;15.05;;;;;;;-141.02;100.00;94970.94;5133390;27;20242;-60
2023/07/01 04:09:22;;;;;;;16.67;15.77;;;;;;;-141.02;100.00;93973.06;5133444;27;20197;-61
2023/07/01 04:11:49;;;;;;;17.17;16.17;;;;;;;-141.02;100.00;92975.47;5133290;27;20231;-59
2023/07/01 04:14:17;;;;;;;17.42;16.33;;;;;;;-141.02;100.00;92476.78;5132940;27;20695;-60
2023/07/01 04:16:44;;;;;;;17.83;16.63;;;;;;;-141.02;100.00;91479.63;5133014;27;20547;-62
2023/07/01 04:19:11;;;;;;;18.73;17.42;;;;;;;-141.02;100.00;90482.72;5133377;28;20188;-59
2023/07/01 04:21:39;;;;;;;20.45;18.85;;;;;;;-141.02;100.00;87244.88;5133215;28;20610;-68
2023/07/01 04:24:07;;;;;;;20.48;18.77;;;;;;;-141.02;98.11;86249.22;5132891;28;20227;-59
2023/07/01 04:26:35;;;;;;;20.02;18.23;;;;;;;-141.02;91.29;85005.03;5132875;28;20222;-60
2023/07/01 04:29:02;;;;;;;21.20;19.40;;;;;;;-141.02;84.57;84010.03;5133176;27;20308;-59
2023/07/01 04:31:30;;;;;;;21.02;19.13;;;;;;;-141.02;83.62;82269.47;5133158;28;20188;-61
2023/07/01 04:33:57;;;;;;;22.70;20.75;;;;;;;-141.02;80.78;81026.72;5133056;28;20256;-64
2023/07/01 04:36:24;;;;;;;23.00;20.90;;;;;;;-141.02;80.45;80529.75;5133892;28;20910;-70
2023/07/01 04:38:51;;;;;;;21.75;19.75;;;;;;;-141.02;82.37;81275.25;5132826;27;20242;-63
2023/07/01 04:41:24;;;;;;;22.95;20.75;;;;;;;-141.02;79.20;80281.31;5133020;28;20201;-72
2023/07/01 04:43:51;;;;;;;23.77;21.67;;;;;;;-141.02;76.89;80281.31;5132480;28;20273;-64
2023/07/01 04:46:19;;;;;;;22.95;20.85;;;;;;;-141.02;74.52;79287.66;5132644;27;20197;-62
2023/07/01 04:48:48;;;;;;;23.05;21.05;;;;;;;-141.02;74.22;79287.66;5132693;28;20654;-61
2023/07/01 04:51:15;;;;;;;23.15;21.05;;;;;;;-141.02;75.51;79039.28;5135580;27;20196;-68
2023/07/01 04:53:42;;;;;;;22.77;20.67;;;;;;;-141.02;72.86;78542.63;5136616;27;20197;-62
2023/07/01 04:56:09;;;;;;;22.83;20.83;;;;;;;-141.02;73.94;78046.00;5136824;27;20192;-62
2023/07/01 04:58:36;;;;;;;22.70;20.70;;;;;;;-141.02;75.69;77053.00;5136515;27;20727;-61
2023/07/01 05:01:03;;;;;;;22.83;20.90;;;;;;;-141.02;74.04;77053.00;5136935;27;20245;-64
2023/07/01 05:03:30;;;;;;;22.92;20.92;;;;;;;-141.02;75.86;76556.59;5136847;27;20188;-59
2023/07/01 05:05:58;;;;;;;23.58;21.48;;;;;;;-141.02;78.30;76556.59;5136843;27;20205;-59
2023/07/01 05:08:25;;;;;;;22.65;20.75;;;;;;;-141.02;78.13;75812.16;5136795;27;20233;-59
2023/07/01 05:10:54;;;;;;;22.23;20.42;;;;;;;-141.02;82.89;76060.28;5136274;27;20295;-70
2023/07/01 05:13:27;;;;;;;21.35;19.55;;;;;;;-141.02;83.73;76308.44;5136706;27;20296;-59
2023/07/01 05:15:55;;;;;;;21.70;19.80;;;;;;;-141.02;85.41;76308.44;5136462;27;20223;-59
2023/07/01 05:18:24;;;;;;;21.45;19.55;;;;;;;-141.02;82.49;76556.59;5136327;27;20241;-63
2023/07/01 05:20:58;;;;;;;21.52;19.60;;;;;;;-141.02;80.83;77053.00;5136036;27;20197;-60
2023/07/01 05:23:27;;;;;;;20.73;18.92;;;;;;;-141.02;81.14;77549.47;5136096;27;20245;-66
2023/07/01 05:25:56;;;;;;;21.15;19.35;;;;;;;-141.02;82.86;76804.81;5136658;27;20204;-64
2023/07/01 05:28:29;;;;;;;20.90;19.00;;;;;;;-141.02;86.13;76556.59;5136465;27;20188;-62
2023/07/01 05:30:56;;;;;;;20.30;18.60;;;;;;;-141.02;88.71;76060.28;5136030;27;20192;-71
2023/07/01 05:33:23;;;;;;;20.27;18.58;;;;;;;-141.02;91.29;75315.94;5136271;27;20217;-58
2023/07/01 05:35:50;;;;;;;20.10;18.50;;;;;;;-141.02;93.41;75315.94;5135783;27;20609;-58
2023/07/01 05:38:18;;;;;;;19.02;17.52;;;;;;;-141.02;99.92;76060.28;5135840;27;20670;-58
2023/07/01 05:40:45;;;;;;;19.15;17.65;;;;;;;-141.02;99.18;76308.44;5136169;27;20192;-61
2023/07/01 05:43:12;;;;;;;18.35;16.95;;;;;;;-141.02;99.02;75564.03;5135643;27;20277;-66
2023/07/01 05:45:39;;;;;;;18.20;16.88;;;;;;;-141.02;99.25;76308.44;5135643;27;20229;-64
2023/07/01 05:48:07;;;;;;;17.92;16.52;;;;;;;-141.02;100.00;76308.44;5135713;27;20253;-59
2023/07/01 05:50:34;;;;;;;18.08;16.67;;;;;;;-141.02;100.00;76060.28;5135867;27;20200;-61
2023/07/01 05:53:02;;;;;;;17.88;16.58;;;;;;;-141.02;100.00;76308.44;5135877;27;20195;-59
2023/07/01 05:55:30;;;;;;;18.20;16.83;;;;;;;-141.02;99.74;76804.81;5135322;27;20227;-62
2023/07/01 05:57:57;;;;;;;19.10;17.60;;;;;;;-141.02;98.02;76308.44;5136679;27;20200;-63
2023/07/01 06:00:24;;;;;;;19.10;17.50;;;;;;;-141.02;96.38;75564.03;5135449;27;20738;-61
2023/07/01 06:02:52;;;;;;;18.77;17.27;;;;;;;-141.02;97.49;75812.16;5135272;27;20566;-59
2023/07/01 06:05:19;;;;;;;19.35;17.75;;;;;;;-141.02;95.85;75067.88;5135636;27;20197;-67
2023/07/01 06:07:46;;;;;;;18.45;16.95;;;;;;;-141.02;97.88;76308.44;5135463;27;20189;-60
2023/07/01 06:10:13;;;;;;;18.98;17.38;;;;;;;-141.02;95.58;75315.94;5135262;27;20192;-72
2023/07/01 06:12:42;;;;;;;18.25;16.75;;;;;;;-141.02;97.89;76060.28;5135418;27;20197;-60
2023/07/01 06:15:10;;;;;;;19.35;17.67;;;;;;;-141.02;96.19;75812.16;5135055;27;20666;-59
2023/07/01 06:17:37;;;;;;;19.10;17.50;;;;;;;-141.02;97.21;76060.28;5135118;27;20196;-66
2023/07/01 06:20:05;;;;;;;19.75;18.05;;;;;;;-141.02;92.98;75564.03;5135024;27;20685;-73
2023/07/01 06:22:32;;;;;;;19.15;17.55;;;;;;;-141.02;95.06;76308.44;5135330;27;20220;-61
2023/07/01 06:24:59;;;;;;;19.63;18.02;;;;;;;-141.02;92.72;74819.81;5134989;27;20196;-60
2023/07/01 06:27:26;;;;;;;19.70;18.00;;;;;;;-141.02;93.69;75812.16;5135257;27;20328;-59
2023/07/01 06:29:54;;;;;;;19.58;17.88;;;;;;;-141.02;91.61;75812.16;5135166;27;20192;-67
2023/07/01 06:32:21;;;;;;;19.80;18.10;;;;;;;-141.02;91.24;75812.16;5135085;27;20570;-70
2023/07/01 06:34:48;;;;;;;19.38;17.67;;;;;;;-141.02;91.56;75564.03;5134923;27;20786;-66
2023/07/01 06:37:15;;;;;;;19.90;18.13;;;;;;;-141.02;89.98;75315.94;5134549;27;20253;-67
2023/07/01 06:39:42;;;;;;;19.55;17.85;;;;;;;-141.02;90.54;76556.59;5134956;27;20234;-59
2023/07/01 06:42:09;;;;;;;20.17;18.38;;;;;;;-141.02;88.88;76308.44;5134581;27;20659;-59
2023/07/01 06:44:37;;;;;;;20.67;18.77;;;;;;;-141.02;84.39;74819.81;5134449;27;20232;-67
2023/07/01 06:47:07;;;;;;;20.55;18.75;;;;;;;-141.02;87.71;76556.59;5134752;27;20288;-73
2023/07/01 06:49:34;;;;;;;21.00;19.10;;;;;;;-141.02;85.18;75564.03;5134768;27;20245;-64
2023/07/01 06:52:01;;;;;;;20.77;18.88;;;;;;;-141.02;85.26;75812.16;5134758;27;20245;-71
2023/07/01 06:54:28;;;;;;;21.35;19.35;;;;;;;-141.02;83.53;76060.28;5134218;27;20563;-65
2023/07/01 06:56:55;;;;;;;22.15;20.05;;;;;;;-141.02;80.32;75315.94;5134606;27;20227;-67
2023/07/01 06:59:22;;;;;;;22.48;20.38;;;;;;;-141.02;78.50;75315.94;5134238;27;20192;-61
2023/07/01 07:01:49;;;;;;;22.20;20.10;;;;;;;-141.02;78.88;75812.16;5134371;27;20250;-60
2023/07/01 07:04:17;;;;;;;22.30;20.30;;;;;;;-141.02;80.83;77549.47;5134130;27;20257;-74
2023/07/01 07:06:44;;;;;;;22.15;20.15;;;;;;;-141.02;79.03;76556.59;5134444;27;20193;-76
2023/07/01 07:09:11;;;;;;;21.77;19.77;;;;;;;-141.02;78.44;76060.28;5134067;27;20731;-72
2023/07/01 07:11:40;;;;;;;21.38;19.38;;;;;;;-141.02;80.75;77053.00;5134046;27;20196;-68
2023/07/01 07:14:07;;;;;;;22.30;20.20;;;;;;;-141.02;76.52;75812.16;5133778;27;20196;-68
2023/07/01 07:16:34;;;;;;;21.90;19.80;;;;;;;-141.02;74.06;75564.03;5133879;27;20224;-71
2023/07/01 07:19:01;;;;;;;21.73;19.63;;;;;;;-141.02;73.32;76060.28;5133913;27;20223;-62
2023/07/01 07:21:29;;;;;;;21.88;19.77;;;;;;;-141.02;78.13;77797.72;5133857;27;20193;-64
2023/07/01 07:23:56;;;;;;;21.92;19.80;;;;;;;-141.02;75.81;76060.28;5133998;27;20640;-61
2023/07/01 07:26:23;;;;;;;22.67;20.48;;;;;;;-141.02;69.81;74819.81;5133787;27;20200;-60
2023/07/01 07:28:50;;;;;;;23.10;20.80;;;;;;;-141.02;71.12;75564.03;5133711;27;20218;-69
2023/07/01 07:31:17;;;;;;;22.67;20.48;;;;;;;-141.02;71.86;76060.28;5133974;27;20192;-60
2023/07/01 07:33:44;;;;;;;22.52;20.33;;;;;;;-141.02;73.35;77053.00;5133693;27;20253;-79
2023/07/01 07:36:11;;;;;;;22.42;20.23;;;;;;;-141.02;69.20;74819.81;5133419;27;20227;-69
2023/07/01 07:38:40;;;;;;;22.58;20.38;;;;;;;-141.02;70.65;75812.16;5133841;27;20193;-63
2023/07/01 07:41:07;;;;;;;21.60;19.50;;;;;;;-141.02;72.27;77301.22;5133744;27;20257;-60
2023/07/01 07:43:34;;;;;;;21.50;19.50;;;;;;;-141.02;71.58;76308.44;5133229;27;20224;-66
2023/07/01 07:46:01;;;;;;;22.77;20.58;;;;;;;-141.02;68.85;74819.81;5133456;27;20260;-74
2023/07/01 07:48:28;;;;;;;22.42;20.23;;;;;;;-141.02;68.70;75067.88;5133629;27;20196;-74
2023/07/01 07:50:55;;;;;;;22.83;20.63;;;;;;;-141.02;67.99;74571.75;5133319;27;20651;-74
2023/07/01 07:53:22;;;;;;;22.92;20.77;;;;;;;-141.02;70.68;77301.22;5133580;27;20223;-75
2023/07/01 07:55:50;;;;;;;22.20;20.10;;;;;;;-141.02;67.84;75067.88;5133484;27;20315;-79
2023/07/01 07:58:17;;;;;;;22.98;20.77;;;;;;;-141.02;70.83;76556.59;5133552;27;20249;-71
2023/07/01 08:00:44;;;;;;;22.70;20.60;;;;;;;-141.02;67.81;76556.59;5133511;27;20202;-75
2023/07/01 08:03:13;;;;;;;23.05;20.95;;;;;;;-141.02;67.77;75812.16;5133404;27;20272;-77
2023/07/01 08:05:40;;;;;;;23.40;21.30;;;;;;;-141.02;69.84;76804.81;5133079;27;20256;-69
2023/07/01 08:08:08;;;;;;;23.95;21.75;;;;;;;-141.02;66.61;75564.03;5133339;27;20265;-61
2023/07/01 08:10:35;;;;;;;23.80;21.60;;;;;;;-141.02;65.32;74571.75;5133290;27;20257;-60
2023/07/01 08:13:04;;;;;;;23.00;20.90;;;;;;;-141.02;68.68;75812.16;5133051;27;20654;-59
2023/07/01 08:15:31;;;;;;;23.60;21.40;;;;;;;-141.02;67.88;76308.44;5133209;27;20256;-66
2023/07/01 08:17:58;;;;;;;24.08;21.88;;;;;;;-141.02;69.03;77549.47;5132969;27;20228;-63
2023/07/01 08:20:25;;;;;;;23.85;21.65;;;;;;;-141.02;66.90;75812.16;5132952;28;20232;-70
2023/07/01 08:22:52;;;;;;;23.85;21.65;;;;;;;-141.02;69.15;76804.81;5132840;28;20232;-68
2023/07/01 08:25:19;;;;;;;25.05;22.75;;;;;;;-141.02;65.62;74819.81;5134403;27;20192;-60
2023/07/01 08:27:46;;;;;;;24.40;22.10;;;;;;;-141.02;63.30;74323.72;5137165;27;20200;-66
2023/07/01 08:30:15;;;;;;;23.88;21.67;;;;;;;-141.02;63.63;73579.75;5137409;27;20192;-63
2023/07/01 08:32:43;;;;;;;23.55;21.35;;;;;;;-141.02;65.49;74571.75;5137346;27;20200;-63
2023/07/01 08:35:10;;;;;;;23.90;21.70;;;;;;;-141.02;62.82;74075.72;5137640;27;20600;-60
2023/07/01 08:37:37;;;;;;;23.52;21.33;;;;;;;-141.02;65.14;75315.94;5137004;27;20636;-64
2023/07/01 08:40:05;;;;;;;23.95;21.75;;;;;;;-141.02;63.78;74819.81;5137328;27;20221;-60
2023/07/01 08:42:39;;;;;;;23.75;21.55;;;;;;;-141.02;64.16;74323.72;5136974;27;20192;-64
2023/07/01 08:45:08;;;;;;;23.50;21.30;;;;;;;-141.02;61.92;74075.72;5136906;27;20727;-68
2023/07/01 08:47:37;;;;;;;23.67;21.42;;;;;;;-141.02;62.76;74571.75;5137161;27;20274;-63
2023/07/01 08:50:06;;;;;;;23.83;21.52;;;;;;;-141.02;61.82;72835.97;5137088;27;20241;-59
2023/07/01 08:52:40;;;;;;;24.13;21.83;;;;;;;-141.02;60.24;72092.31;5136980;27;20192;-60
2023/07/01 08:55:09;;;;;;;24.55;22.17;;;;;;;-141.02;63.87;72835.97;5136581;27;20619;-59
2023/07/01 08:57:37;;;;;;;24.08;21.85;;;;;;;-141.02;61.85;71844.47;5136604;27;20203;-59
2023/07/01 09:00:06;;;;;;;23.90;21.70;;;;;;;-141.02;62.52;71348.81;5136717;27;20211;-74
2023/07/01 09:02:37;;;;;;;23.25;21.05;;;;;;;-141.02;60.89;71844.47;5136789;27;20614;-71
2023/07/01 09:05:05;;;;;;;24.60;22.30;;;;;;;-141.02;60.06;71101.03;5136760;27;20561;-61
2023/07/01 09:07:33;;;;;;;24.40;22.10;;;;;;;-141.02;58.96;71348.81;5136803;27;20573;-68
2023/07/01 09:10:02;;;;;;;24.13;21.83;;;;;;;-141.02;61.03;73827.72;5136483;27;20669;-60
2023/07/01 09:12:30;;;;;;;24.35;22.08;;;;;;;-141.02;56.54;73083.88;5136628;27;20575;-59
2023/07/01 09:14:58;;;;;;;24.65;22.27;;;;;;;-141.02;54.82;70357.75;5136546;27;20204;-59
2023/07/01 09:17:29;;;;;;;24.95;22.55;;;;;;;-141.02;56.93;71348.81;5136546;27;20270;-61
2023/07/01 09:20:01;;;;;;;25.08;22.67;;;;;;;-141.02;57.43;69366.97;5136085;27;20633;-59
2023/07/01 09:22:29;;;;;;;25.05;22.65;;;;;;;-141.02;60.80;69862.34;5136184;27;20275;-74
2023/07/01 09:24:56;;;;;;;24.92;22.63;;;;;;;-141.02;57.59;68871.72;5136302;27;20246;-60
2023/07/01 09:27:23;;;;;;;24.95;22.65;;;;;;;-141.02;56.43;69119.34;5136144;27;20585;-59
2023/07/01 09:29:52;;;;;;;24.23;21.92;;;;;;;-141.02;58.23;70110.03;5136024;27;20204;-60
2023/07/01 09:32:34;;;;;;;23.88;21.65;;;;;;;-141.02;56.49;69862.34;5136138;27;20197;-60
2023/07/01 09:35:03;;;;;;;24.77;22.55;;;;;;;-141.02;56.58;67881.38;5135813;27;20188;-60
2023/07/01 09:37:30;;;;;;;24.25;21.95;;;;;;;-141.02;57.48;69119.34;5135699;27;20264;-69
2023/07/01 09:39:57;;;;;;;24.48;22.17;;;;;;;-141.02;58.28;70110.03;5135829;27;20192;-60
2023/07/01 09:42:24;;;;;;;24.38;22.08;;;;;;;-141.02;59.69;71844.47;5135826;27;20201;-69
2023/07/01 09:45:08;;;;;;;24.45;22.15;;;;;;;-141.02;59.23;71596.63;5135797;27;20189;-70
2023/07/01 09:47:35;;;;;;;24.73;22.40;;;;;;;-141.02;62.50;72340.16;5135729;27;20669;-67
2023/07/01 09:50:04;;;;;;;25.98;23.58;;;;;;;-141.02;57.29;68871.72;5135685;27;20197;-61
2023/07/01 09:52:32;;;;;;;26.80;24.30;;;;;;;-141.02;58.76;70853.25;5135913;27;20192;-60
2023/07/01 09:55:02;;;;;;;25.40;23.08;;;;;;;-141.02;59.66;67633.81;5135884;27;20594;-71
2023/07/01 09:57:30;;;;;;;24.95;22.60;;;;;;;-141.02;59.88;70110.03;5135647;27;20228;-70
2023/07/01 09:59:57;;;;;;;24.60;22.30;;;;;;;-141.02;59.11;70357.75;5135512;27;20199;-62
2023/07/01 10:02:24;;;;;;;25.08;22.77;;;;;;;-141.02;63.18;73083.88;5135448;27;20189;-75
2023/07/01 10:04:53;;;;;;;25.98;23.58;;;;;;;-141.02;57.11;69614.66;5135623;27;20611;-61
2023/07/01 10:07:21;;;;;;;25.17;22.77;;;;;;;-141.02;56.82;70605.50;5135616;27;20299;-64
2023/07/01 10:09:51;;;;;;;25.08;22.77;;;;;;;-141.02;55.86;69614.66;5135463;27;20188;-59
2023/07/01 10:12:20;;;;;;;24.25;21.95;;;;;;;-141.02;58.39;70605.50;5135522;27;20271;-61
2023/07/01 10:14:51;;;;;;;24.60;22.30;;;;;;;-141.02;60.28;70853.25;5135361;27;20200;-71
2023/07/01 10:17:18;;;;;;;24.95;22.55;;;;;;;-141.02;56.26;69366.97;5135382;27;20209;-64
2023/07/01 10:19:47;;;;;;;25.10;22.70;;;;;;;-141.02;55.36;67386.28;5135388;27;20196;-59
2023/07/01 10:22:23;;;;;;;24.80;22.40;;;;;;;-141.02;57.00;67138.78;5135340;27;20613;-59
2023/07/01 10:25:01;;;;;;;24.33;22.05;;;;;;;-141.02;59.01;67386.28;5135078;27;20191;-58
2023/07/01 10:28:15;;;;;;;26.23;23.83;;;;;;;-141.02;60.85;68871.72;5135232;27;20245;-61
2023/07/01 10:31:13;;;;;;;24.88;22.58;;;;;;;-141.02;60.55;67138.78;5125357;27;20315;-59
2023/07/01 10:33:51;;;;;;;25.02;22.73;;;;;;;-141.02;59.81;69119.34;5134811;27;20245;-60
2023/07/01 10:36:18;;;;;;;25.90;23.60;;;;;;;-141.02;58.75;70605.50;5134673;27;20224;-60
2023/07/01 10:38:47;;;;;;;24.98;22.73;;;;;;;-141.02;57.69;68624.09;5134715;27;20189;-59
2023/07/01 10:41:14;;;;;;;24.00;21.90;;;;;;;-141.02;58.21;70110.03;5134945;27;20249;-63
2023/07/01 10:43:41;;;;;;;23.38;21.27;;;;;;;-141.02;58.30;69614.66;5134234;27;20228;-62
2023/07/01 10:46:11;;;;;;;23.67;21.48;;;;;;;-141.02;55.96;68376.50;5134408;27;20195;-59
2023/07/01 10:48:39;;;;;;;23.77;21.58;;;;;;;-141.02;56.07;68871.72;5133586;27;20200;-65
2023/07/01 10:51:07;;;;;;;24.38;22.30;;;;;;;-141.02;56.98;69366.97;5134714;27;20196;-62
2023/07/01 10:54:00;;;;;;;24.15;21.95;;;;;;;-141.02;57.24;70853.25;5134336;27;20669;-61
2023/07/01 10:56:29;;;;;;;23.98;21.77;;;;;;;-141.02;55.65;70110.03;5129202;27;20228;-60
2023/07/01 10:59:25;;;;;;;23.55;21.38;;;;;;;-141.02;55.09;70605.50;5134289;27;20228;-62
2023/07/01 11:01:56;;;;;;;23.50;21.30;;;;;;;-141.02;55.43;69862.34;5134291;27;20185;-66
2023/07/01 11:04:24;;;;;;;23.25;21.15;;;;;;;-141.02;56.14;70110.03;5134136;27;20665;-59
2023/07/01 11:06:52;;;;;;;23.45;21.25;;;;;;;-141.02;51.62;67881.38;5134131;27;20192;-68
2023/07/01 11:09:32;;;;;;;23.98;21.70;;;;;;;-141.02;52.07;65901.53;5134313;27;20207;-67
2023/07/01 11:12:01;;;;;;;23.88;21.67;;;;;;;-141.02;52.17;66148.94;5134020;27;20373;-60
2023/07/01 11:14:32;;;;;;;23.67;21.48;;;;;;;-141.02;51.59;66891.31;5133973;27;20731;-59
2023/07/01 11:17:11;;;;;;;23.77;21.58;;;;;;;-141.02;53.21;68624.09;5133765;27;20614;-59
2023/07/01 11:19:38;;;;;;;23.67;21.48;;;;;;;-141.02;55.43;68376.50;5133812;27;20231;-60
2023/07/01 11:22:06;;;;;;;23.55;21.35;;;;;;;-141.02;53.67;64417.41;5134156;27;20197;-65
2023/07/01 11:24:34;;;;;;;23.58;21.33;;;;;;;-141.02;57.31;69614.66;5133803;27;20235;-66